sensor_id;sensor_type;location;lat;lon;timestamp;P1;durP1;ratioP1;P2;durP2;ratioP2
61905;SDS011;47863;55.766;37.672;2023-09-12T00:00:53;12.00;;;6.43;;
61905;SDS011;47863;55.766;37.672;2023-09-12T00:03:20;10.90;;;5.65;;
61905;SDS011;47863;55.766;37.672;2023-09-12T00:05:53;12.40;;;6.35;;
61905;SDS011;47863;55.766;37.672;2023-09-12T00:08:21;16.00;;;7.25;;
61905;SDS011;47863;55.766;37.672;2023-09-12T00:10:47;14.43;;;7.60;;
61905;SDS011;47863;55.766;37.672;2023-09-12T00:13:22;13.70;;;6.53;;
61905;SDS011;47863;55.766;37.672;2023-09-12T00:15:48;10.90;;;6.68;;
61905;SDS011;47863;55.766;37.672;2023-09-12T00:18:13;16.33;;;7.10;;
61905;SDS011;47863;55.766;37.672;2023-09-12T00:20:39;12.88;;;6.40;;
61905;SDS011;47863;55.766;37.672;2023-09-12T00:23:05;14.38;;;7.05;;
61905;SDS011;47863;55.766;37.672;2023-09-12T00:25:30;14.95;;;6.97;;
61905;SDS011;47863;55.766;37.672;2023-09-12T00:27:56;10.80;;;5.68;;
61905;SDS011;47863;55.766;37.672;2023-09-12T00:30:21;14.13;;;7.10;;
61905;SDS011;47863;55.766;37.672;2023-09-12T00:32:47;11.90;;;6.13;;
61905;SDS011;47863;55.766;37.672;2023-09-12T00:35:12;14.52;;;6.53;;
61905;SDS011;47863;55.766;37.672;2023-09-12T00:37:38;12.98;;;6.45;;
61905;SDS011;47863;55.766;37.672;2023-09-12T00:40:04;13.88;;;6.95;;
61905;SDS011;47863;55.766;37.672;2023-09-12T00:42:30;15.30;;;7.28;;
61905;SDS011;47863;55.766;37.672;2023-09-12T00:44:56;12.18;;;5.88;;
61905;SDS011;47863;55.766;37.672;2023-09-12T00:47:21;14.10;;;6.80;;
61905;SDS011;47863;55.766;37.672;2023-09-12T00:49:49;13.90;;;7.32;;
61905;SDS011;47863;55.766;37.672;2023-09-12T00:52:16;12.77;;;7.25;;
61905;SDS011;47863;55.766;37.672;2023-09-12T00:54:43;19.15;;;8.38;;
61905;SDS011;47863;55.766;37.672;2023-09-12T00:57:09;17.30;;;8.45;;
61905;SDS011;47863;55.766;37.672;2023-09-12T00:59:34;12.13;;;5.95;;
61905;SDS011;47863;55.766;37.672;2023-09-12T01:02:01;15.48;;;7.68;;
61905;SDS011;47863;55.766;37.672;2023-09-12T01:04:26;16.15;;;7.55;;
61905;SDS011;47863;55.766;37.672;2023-09-12T01:06:52;14.23;;;7.13;;
61905;SDS011;47863;55.766;37.672;2023-09-12T01:09:18;13.82;;;7.72;;
61905;SDS011;47863;55.766;37.672;2023-09-12T01:11:44;15.32;;;6.85;;
61905;SDS011;47863;55.766;37.672;2023-09-12T01:14:09;13.23;;;7.28;;
61905;SDS011;47863;55.766;37.672;2023-09-12T01:16:35;13.05;;;7.03;;
61905;SDS011;47863;55.766;37.672;2023-09-12T01:19:01;19.88;;;8.40;;
61905;SDS011;47863;55.766;37.672;2023-09-12T01:21:38;15.15;;;6.93;;
61905;SDS011;47863;55.766;37.672;2023-09-12T01:27:34;14.07;;;6.70;;
61905;SDS011;47863;55.766;37.672;2023-09-12T01:30:07;14.93;;;7.60;;
61905;SDS011;47863;55.766;37.672;2023-09-12T01:32:34;16.08;;;7.10;;
61905;SDS011;47863;55.766;37.672;2023-09-12T01:35:00;13.73;;;6.70;;
61905;SDS011;47863;55.766;37.672;2023-09-12T01:37:30;12.32;;;7.28;;
61905;SDS011;47863;55.766;37.672;2023-09-12T01:39:58;14.07;;;6.65;;
61905;SDS011;47863;55.766;37.672;2023-09-12T01:42:24;13.93;;;6.43;;
61905;SDS011;47863;55.766;37.672;2023-09-12T01:44:55;16.60;;;7.18;;
61905;SDS011;47863;55.766;37.672;2023-09-12T01:47:22;15.63;;;7.53;;
61905;SDS011;47863;55.766;37.672;2023-09-12T01:49:51;13.65;;;6.10;;
61905;SDS011;47863;55.766;37.672;2023-09-12T01:52:19;15.85;;;7.05;;
61905;SDS011;47863;55.766;37.672;2023-09-12T01:54:46;13.93;;;6.35;;
61905;SDS011;47863;55.766;37.672;2023-09-12T01:57:13;13.57;;;6.70;;
61905;SDS011;47863;55.766;37.672;2023-09-12T01:59:39;12.55;;;6.13;;
61905;SDS011;47863;55.766;37.672;2023-09-12T02:02:05;18.25;;;8.75;;
61905;SDS011;47863;55.766;37.672;2023-09-12T02:04:32;16.13;;;7.35;;
61905;SDS011;47863;55.766;37.672;2023-09-12T02:06:58;15.23;;;7.82;;
61905;SDS011;47863;55.766;37.672;2023-09-12T02:09:23;14.88;;;7.60;;
61905;SDS011;47863;55.766;37.672;2023-09-12T02:11:50;17.13;;;7.82;;
61905;SDS011;47863;55.766;37.672;2023-09-12T02:14:16;17.52;;;7.47;;
61905;SDS011;47863;55.766;37.672;2023-09-12T02:16:43;14.32;;;7.72;;
61905;SDS011;47863;55.766;37.672;2023-09-12T02:19:09;14.15;;;7.15;;
61905;SDS011;47863;55.766;37.672;2023-09-12T02:21:34;14.38;;;6.88;;
61905;SDS011;47863;55.766;37.672;2023-09-12T02:24:00;15.68;;;7.45;;
61905;SDS011;47863;55.766;37.672;2023-09-12T02:26:26;15.05;;;7.60;;
61905;SDS011;47863;55.766;37.672;2023-09-12T02:28:51;16.05;;;7.85;;
61905;SDS011;47863;55.766;37.672;2023-09-12T02:31:17;14.98;;;6.85;;
61905;SDS011;47863;55.766;37.672;2023-09-12T02:33:42;14.38;;;7.22;;
61905;SDS011;47863;55.766;37.672;2023-09-12T02:36:08;13.07;;;7.18;;
61905;SDS011;47863;55.766;37.672;2023-09-12T02:38:34;13.15;;;6.85;;
61905;SDS011;47863;55.766;37.672;2023-09-12T02:40:59;14.32;;;6.85;;
61905;SDS011;47863;55.766;37.672;2023-09-12T02:43:25;19.17;;;7.65;;
61905;SDS011;47863;55.766;37.672;2023-09-12T02:45:51;16.85;;;7.25;;
61905;SDS011;47863;55.766;37.672;2023-09-12T02:48:16;16.45;;;6.72;;
61905;SDS011;47863;55.766;37.672;2023-09-12T02:50:42;16.35;;;8.35;;
61905;SDS011;47863;55.766;37.672;2023-09-12T02:53:07;16.42;;;7.30;;
61905;SDS011;47863;55.766;37.672;2023-09-12T02:55:33;15.90;;;7.40;;
61905;SDS011;47863;55.766;37.672;2023-09-12T02:57:58;18.50;;;7.35;;
61905;SDS011;47863;55.766;37.672;2023-09-12T03:00:24;13.95;;;6.68;;
61905;SDS011;47863;55.766;37.672;2023-09-12T03:02:50;15.63;;;7.50;;
61905;SDS011;47863;55.766;37.672;2023-09-12T03:05:15;15.55;;;7.90;;
61905;SDS011;47863;55.766;37.672;2023-09-12T03:07:41;18.33;;;7.82;;
61905;SDS011;47863;55.766;37.672;2023-09-12T03:10:07;14.82;;;7.05;;
61905;SDS011;47863;55.766;37.672;2023-09-12T03:12:33;15.10;;;7.40;;
61905;SDS011;47863;55.766;37.672;2023-09-12T03:15:00;16.13;;;7.65;;
61905;SDS011;47863;55.766;37.672;2023-09-12T03:17:29;14.43;;;7.35;;
61905;SDS011;47863;55.766;37.672;2023-09-12T03:19:55;16.70;;;7.82;;
61905;SDS011;47863;55.766;37.672;2023-09-12T03:22:20;15.55;;;7.40;;
61905;SDS011;47863;55.766;37.672;2023-09-12T03:24:46;18.63;;;7.32;;
61905;SDS011;47863;55.766;37.672;2023-09-12T03:27:11;16.20;;;8.07;;
61905;SDS011;47863;55.766;37.672;2023-09-12T03:29:37;17.40;;;8.18;;
61905;SDS011;47863;55.766;37.672;2023-09-12T03:32:03;16.00;;;7.90;;
61905;SDS011;47863;55.766;37.672;2023-09-12T03:34:29;17.58;;;7.35;;
61905;SDS011;47863;55.766;37.672;2023-09-12T03:36:54;14.80;;;7.53;;
61905;SDS011;47863;55.766;37.672;2023-09-12T03:39:20;16.75;;;7.95;;
61905;SDS011;47863;55.766;37.672;2023-09-12T03:41:45;14.23;;;7.15;;
61905;SDS011;47863;55.766;37.672;2023-09-12T03:44:11;15.63;;;7.15;;
61905;SDS011;47863;55.766;37.672;2023-09-12T03:46:37;15.40;;;7.35;;
61905;SDS011;47863;55.766;37.672;2023-09-12T03:49:02;15.48;;;7.32;;
61905;SDS011;47863;55.766;37.672;2023-09-12T03:51:28;18.38;;;8.38;;
61905;SDS011;47863;55.766;37.672;2023-09-12T03:53:54;17.08;;;8.10;;
61905;SDS011;47863;55.766;37.672;2023-09-12T03:56:19;14.82;;;6.88;;
61905;SDS011;47863;55.766;37.672;2023-09-12T03:58:46;17.38;;;8.50;;
61905;SDS011;47863;55.766;37.672;2023-09-12T04:01:11;14.68;;;7.22;;
61905;SDS011;47863;55.766;37.672;2023-09-12T04:03:37;19.60;;;8.43;;
61905;SDS011;47863;55.766;37.672;2023-09-12T04:06:04;12.05;;;6.55;;
61905;SDS011;47863;55.766;37.672;2023-09-12T04:08:30;14.15;;;6.93;;
61905;SDS011;47863;55.766;37.672;2023-09-12T04:10:57;19.80;;;9.55;;
61905;SDS011;47863;55.766;37.672;2023-09-12T04:13:22;15.30;;;8.18;;
61905;SDS011;47863;55.766;37.672;2023-09-12T04:15:48;16.77;;;7.57;;
61905;SDS011;47863;55.766;37.672;2023-09-12T04:18:13;13.82;;;6.95;;
61905;SDS011;47863;55.766;37.672;2023-09-12T04:20:39;13.23;;;6.88;;
61905;SDS011;47863;55.766;37.672;2023-09-12T04:23:05;15.07;;;7.28;;
61905;SDS011;47863;55.766;37.672;2023-09-12T04:25:30;14.57;;;7.03;;
61905;SDS011;47863;55.766;37.672;2023-09-12T04:27:56;17.92;;;8.35;;
61905;SDS011;47863;55.766;37.672;2023-09-12T04:30:22;15.98;;;7.50;;
61905;SDS011;47863;55.766;37.672;2023-09-12T04:32:47;16.90;;;7.75;;
61905;SDS011;47863;55.766;37.672;2023-09-12T04:35:13;15.40;;;7.43;;
61905;SDS011;47863;55.766;37.672;2023-09-12T04:37:39;18.25;;;8.50;;
61905;SDS011;47863;55.766;37.672;2023-09-12T04:40:04;16.27;;;7.75;;
61905;SDS011;47863;55.766;37.672;2023-09-12T04:42:32;16.30;;;7.20;;
61905;SDS011;47863;55.766;37.672;2023-09-12T04:44:57;19.55;;;10.48;;
61905;SDS011;47863;55.766;37.672;2023-09-12T04:47:24;18.15;;;8.50;;
61905;SDS011;47863;55.766;37.672;2023-09-12T04:49:49;19.20;;;10.15;;
61905;SDS011;47863;55.766;37.672;2023-09-12T04:52:15;15.80;;;8.00;;
61905;SDS011;47863;55.766;37.672;2023-09-12T04:54:40;16.95;;;9.57;;
61905;SDS011;47863;55.766;37.672;2023-09-12T04:57:07;13.60;;;7.63;;
61905;SDS011;47863;55.766;37.672;2023-09-12T04:59:33;20.02;;;9.00;;
61905;SDS011;47863;55.766;37.672;2023-09-12T05:01:58;15.07;;;7.65;;
61905;SDS011;47863;55.766;37.672;2023-09-12T05:04:24;16.13;;;7.90;;
61905;SDS011;47863;55.766;37.672;2023-09-12T05:06:49;14.10;;;7.25;;
61905;SDS011;47863;55.766;37.672;2023-09-12T05:09:15;15.80;;;7.97;;
61905;SDS011;47863;55.766;37.672;2023-09-12T05:11:41;17.77;;;8.80;;
61905;SDS011;47863;55.766;37.672;2023-09-12T05:14:07;16.23;;;8.82;;
61905;SDS011;47863;55.766;37.672;2023-09-12T05:16:32;13.85;;;7.45;;
61905;SDS011;47863;55.766;37.672;2023-09-12T05:18:58;14.73;;;8.20;;
61905;SDS011;47863;55.766;37.672;2023-09-12T05:21:23;17.52;;;8.48;;
61905;SDS011;47863;55.766;37.672;2023-09-12T05:23:49;14.65;;;7.97;;
61905;SDS011;47863;55.766;37.672;2023-09-12T05:26:15;17.50;;;8.18;;
61905;SDS011;47863;55.766;37.672;2023-09-12T05:28:40;14.77;;;7.95;;
61905;SDS011;47863;55.766;37.672;2023-09-12T05:31:06;16.05;;;8.15;;
61905;SDS011;47863;55.766;37.672;2023-09-12T05:33:31;16.60;;;7.90;;
61905;SDS011;47863;55.766;37.672;2023-09-12T05:35:57;13.80;;;7.53;;
61905;SDS011;47863;55.766;37.672;2023-09-12T05:38:23;12.00;;;6.43;;
61905;SDS011;47863;55.766;37.672;2023-09-12T05:40:48;13.93;;;7.65;;
61905;SDS011;47863;55.766;37.672;2023-09-12T05:43:17;17.38;;;9.10;;
61905;SDS011;47863;55.766;37.672;2023-09-12T05:45:43;15.40;;;7.43;;
61905;SDS011;47863;55.766;37.672;2023-09-12T05:48:09;22.25;;;9.30;;
61905;SDS011;47863;55.766;37.672;2023-09-12T05:50:35;17.20;;;7.97;;
61905;SDS011;47863;55.766;37.672;2023-09-12T05:53:01;15.45;;;7.82;;
61905;SDS011;47863;55.766;37.672;2023-09-12T05:55:27;16.65;;;8.60;;
61905;SDS011;47863;55.766;37.672;2023-09-12T05:57:53;17.98;;;8.68;;
61905;SDS011;47863;55.766;37.672;2023-09-12T06:00:19;12.77;;;7.57;;
61905;SDS011;47863;55.766;37.672;2023-09-12T06:02:45;14.05;;;7.93;;
61905;SDS011;47863;55.766;37.672;2023-09-12T06:05:14;13.77;;;8.15;;
61905;SDS011;47863;55.766;37.672;2023-09-12T06:07:40;18.27;;;8.43;;
61905;SDS011;47863;55.766;37.672;2023-09-12T06:10:07;16.17;;;8.45;;
61905;SDS011;47863;55.766;37.672;2023-09-12T06:12:33;16.30;;;8.65;;
61905;SDS011;47863;55.766;37.672;2023-09-12T06:15:01;15.27;;;9.02;;
61905;SDS011;47863;55.766;37.672;2023-09-12T06:17:33;14.25;;;9.18;;
61905;SDS011;47863;55.766;37.672;2023-09-12T06:19:59;13.13;;;8.48;;
61905;SDS011;47863;55.766;37.672;2023-09-12T06:22:24;14.68;;;9.13;;
61905;SDS011;47863;55.766;37.672;2023-09-12T06:24:50;16.95;;;10.57;;
61905;SDS011;47863;55.766;37.672;2023-09-12T06:27:15;16.05;;;10.02;;
61905;SDS011;47863;55.766;37.672;2023-09-12T06:29:47;14.55;;;9.98;;
61905;SDS011;47863;55.766;37.672;2023-09-12T06:32:16;13.98;;;10.68;;
61905;SDS011;47863;55.766;37.672;2023-09-12T06:34:43;13.63;;;9.75;;
61905;SDS011;47863;55.766;37.672;2023-09-12T06:37:11;17.48;;;11.75;;
61905;SDS011;47863;55.766;37.672;2023-09-12T06:39:37;16.60;;;11.77;;
61905;SDS011;47863;55.766;37.672;2023-09-12T06:42:03;17.90;;;12.13;;
61905;SDS011;47863;55.766;37.672;2023-09-12T06:44:29;15.50;;;11.52;;
61905;SDS011;47863;55.766;37.672;2023-09-12T06:46:55;16.58;;;12.32;;
61905;SDS011;47863;55.766;37.672;2023-09-12T06:49:20;17.02;;;12.65;;
61905;SDS011;47863;55.766;37.672;2023-09-12T06:51:46;18.08;;;12.90;;
61905;SDS011;47863;55.766;37.672;2023-09-12T06:54:11;17.02;;;13.05;;
61905;SDS011;47863;55.766;37.672;2023-09-12T06:56:37;18.30;;;11.65;;
61905;SDS011;47863;55.766;37.672;2023-09-12T06:59:03;16.25;;;12.73;;
61905;SDS011;47863;55.766;37.672;2023-09-12T07:01:30;16.38;;;12.55;;
61905;SDS011;47863;55.766;37.672;2023-09-12T07:03:56;16.95;;;12.73;;
61905;SDS011;47863;55.766;37.672;2023-09-12T07:06:22;16.95;;;12.48;;
61905;SDS011;47863;55.766;37.672;2023-09-12T07:08:48;17.52;;;12.35;;
61905;SDS011;47863;55.766;37.672;2023-09-12T07:11:14;18.60;;;12.88;;
61905;SDS011;47863;55.766;37.672;2023-09-12T07:13:40;17.13;;;12.13;;
61905;SDS011;47863;55.766;37.672;2023-09-12T07:16:06;14.80;;;12.73;;
61905;SDS011;47863;55.766;37.672;2023-09-12T07:18:32;17.90;;;14.00;;
61905;SDS011;47863;55.766;37.672;2023-09-12T07:21:01;15.70;;;12.32;;
61905;SDS011;47863;55.766;37.672;2023-09-12T07:23:29;16.88;;;12.38;;
61905;SDS011;47863;55.766;37.672;2023-09-12T07:25:55;16.35;;;12.38;;
61905;SDS011;47863;55.766;37.672;2023-09-12T07:28:25;13.85;;;12.35;;
61905;SDS011;47863;55.766;37.672;2023-09-12T07:30:51;18.65;;;12.82;;
61905;SDS011;47863;55.766;37.672;2023-09-12T07:33:17;14.13;;;12.63;;
61905;SDS011;47863;55.766;37.672;2023-09-12T07:35:43;14.65;;;11.73;;
61905;SDS011;47863;55.766;37.672;2023-09-12T07:38:08;15.63;;;11.95;;
61905;SDS011;47863;55.766;37.672;2023-09-12T07:40:34;15.93;;;12.70;;
61905;SDS011;47863;55.766;37.672;2023-09-12T07:43:00;16.83;;;12.13;;
61905;SDS011;47863;55.766;37.672;2023-09-12T07:45:25;14.45;;;12.13;;
61905;SDS011;47863;55.766;37.672;2023-09-12T07:47:51;15.50;;;12.23;;
61905;SDS011;47863;55.766;37.672;2023-09-12T07:50:16;13.75;;;11.95;;
61905;SDS011;47863;55.766;37.672;2023-09-12T07:52:42;14.20;;;11.45;;
61905;SDS011;47863;55.766;37.672;2023-09-12T07:55:08;13.88;;;11.52;;
61905;SDS011;47863;55.766;37.672;2023-09-12T07:57:34;12.02;;;10.80;;
61905;SDS011;47863;55.766;37.672;2023-09-12T08:00:00;13.60;;;11.02;;
61905;SDS011;47863;55.766;37.672;2023-09-12T08:02:26;12.73;;;10.90;;
61905;SDS011;47863;55.766;37.672;2023-09-12T08:04:52;14.13;;;11.50;;
61905;SDS011;47863;55.766;37.672;2023-09-12T08:07:19;13.77;;;11.63;;
61905;SDS011;47863;55.766;37.672;2023-09-12T08:12:18;12.65;;;11.10;;
61905;SDS011;47863;55.766;37.672;2023-09-12T08:14:45;13.30;;;11.68;;
61905;SDS011;47863;55.766;37.672;2023-09-12T08:17:11;11.95;;;10.55;;
61905;SDS011;47863;55.766;37.672;2023-09-12T08:19:38;14.52;;;11.48;;
61905;SDS011;47863;55.766;37.672;2023-09-12T08:22:06;14.85;;;11.63;;
61905;SDS011;47863;55.766;37.672;2023-09-12T08:24:32;12.98;;;10.70;;
61905;SDS011;47863;55.766;37.672;2023-09-12T08:26:58;13.18;;;11.38;;
61905;SDS011;47863;55.766;37.672;2023-09-12T08:29:24;13.98;;;11.32;;
61905;SDS011;47863;55.766;37.672;2023-09-12T08:31:50;12.60;;;11.15;;
61905;SDS011;47863;55.766;37.672;2023-09-12T08:34:16;13.70;;;10.80;;
61905;SDS011;47863;55.766;37.672;2023-09-12T08:36:42;12.43;;;10.30;;
61905;SDS011;47863;55.766;37.672;2023-09-12T08:39:11;12.27;;;9.80;;
61905;SDS011;47863;55.766;37.672;2023-09-12T08:41:39;10.95;;;9.85;;
61905;SDS011;47863;55.766;37.672;2023-09-12T08:44:04;11.05;;;9.63;;
61905;SDS011;47863;55.766;37.672;2023-09-12T08:46:32;11.00;;;9.85;;
61905;SDS011;47863;55.766;37.672;2023-09-12T08:48:58;11.63;;;9.70;;
61905;SDS011;47863;55.766;37.672;2023-09-12T08:51:24;11.73;;;9.73;;
61905;SDS011;47863;55.766;37.672;2023-09-12T08:53:50;10.48;;;9.40;;
61905;SDS011;47863;55.766;37.672;2023-09-12T08:56:17;10.77;;;9.40;;
61905;SDS011;47863;55.766;37.672;2023-09-12T08:58:44;12.52;;;9.65;;
61905;SDS011;47863;55.766;37.672;2023-09-12T09:01:13;10.85;;;9.68;;
61905;SDS011;47863;55.766;37.672;2023-09-12T09:03:41;10.35;;;9.10;;
61905;SDS011;47863;55.766;37.672;2023-09-12T09:06:11;10.75;;;9.20;;
61905;SDS011;47863;55.766;37.672;2023-09-12T09:08:38;11.00;;;9.10;;
61905;SDS011;47863;55.766;37.672;2023-09-12T09:11:04;11.40;;;8.77;;
61905;SDS011;47863;55.766;37.672;2023-09-12T09:13:33;9.40;;;8.40;;
61905;SDS011;47863;55.766;37.672;2023-09-12T09:16:17;9.23;;;8.25;;
61905;SDS011;47863;55.766;37.672;2023-09-12T09:21:19;9.52;;;8.23;;
61905;SDS011;47863;55.766;37.672;2023-09-12T09:23:49;9.80;;;8.48;;
61905;SDS011;47863;55.766;37.672;2023-09-12T09:26:15;13.35;;;9.07;;
61905;SDS011;47863;55.766;37.672;2023-09-12T09:28:41;9.75;;;8.43;;
61905;SDS011;47863;55.766;37.672;2023-09-12T09:31:10;10.98;;;8.93;;
61905;SDS011;47863;55.766;37.672;2023-09-12T09:33:37;9.88;;;8.65;;
61905;SDS011;47863;55.766;37.672;2023-09-12T09:36:05;8.98;;;7.70;;
61905;SDS011;47863;55.766;37.672;2023-09-12T09:38:32;10.90;;;7.88;;
61905;SDS011;47863;55.766;37.672;2023-09-12T09:41:00;8.02;;;6.88;;
61905;SDS011;47863;55.766;37.672;2023-09-12T09:43:29;8.52;;;6.78;;
61905;SDS011;47863;55.766;37.672;2023-09-12T09:45:57;8.25;;;7.00;;
61905;SDS011;47863;55.766;37.672;2023-09-12T09:48:24;8.13;;;6.78;;
61905;SDS011;47863;55.766;37.672;2023-09-12T09:50:52;7.45;;;6.32;;
61905;SDS011;47863;55.766;37.672;2023-09-12T09:53:31;11.52;;;7.13;;
61905;SDS011;47863;55.766;37.672;2023-09-12T09:56:15;8.25;;;7.03;;
61905;SDS011;47863;55.766;37.672;2023-09-12T09:58:51;9.95;;;7.60;;
61905;SDS011;47863;55.766;37.672;2023-09-12T10:01:21;10.32;;;7.72;;
61905;SDS011;47863;55.766;37.672;2023-09-12T10:03:53;10.63;;;8.05;;
61905;SDS011;47863;55.766;37.672;2023-09-12T10:06:23;8.90;;;7.20;;
61905;SDS011;47863;55.766;37.672;2023-09-12T10:08:52;7.22;;;6.53;;
61905;SDS011;47863;55.766;37.672;2023-09-12T10:11:23;9.30;;;6.38;;
61905;SDS011;47863;55.766;37.672;2023-09-12T10:13:52;7.30;;;5.63;;
61905;SDS011;47863;55.766;37.672;2023-09-12T10:16:36;7.72;;;6.57;;
61905;SDS011;47863;55.766;37.672;2023-09-12T10:24:29;7.88;;;6.25;;
61905;SDS011;47863;55.766;37.672;2023-09-12T10:26:56;10.30;;;6.47;;
61905;SDS011;47863;55.766;37.672;2023-09-12T10:29:23;7.75;;;5.30;;
61905;SDS011;47863;55.766;37.672;2023-09-12T10:31:49;6.60;;;5.13;;
61905;SDS011;47863;55.766;37.672;2023-09-12T10:34:15;6.82;;;5.03;;
61905;SDS011;47863;55.766;37.672;2023-09-12T10:36:42;8.10;;;5.20;;
61905;SDS011;47863;55.766;37.672;2023-09-12T10:39:08;6.88;;;5.28;;
61905;SDS011;47863;55.766;37.672;2023-09-12T10:41:39;8.00;;;5.18;;
61905;SDS011;47863;55.766;37.672;2023-09-12T10:44:10;7.45;;;5.07;;
61905;SDS011;47863;55.766;37.672;2023-09-12T10:46:38;7.82;;;5.10;;
61905;SDS011;47863;55.766;37.672;2023-09-12T10:49:08;6.40;;;4.68;;
61905;SDS011;47863;55.766;37.672;2023-09-12T10:51:38;6.13;;;4.40;;
61905;SDS011;47863;55.766;37.672;2023-09-12T10:54:06;6.60;;;4.07;;
61905;SDS011;47863;55.766;37.672;2023-09-12T10:56:33;7.13;;;4.32;;
61905;SDS011;47863;55.766;37.672;2023-09-12T11:01:42;7.68;;;4.55;;
61905;SDS011;47863;55.766;37.672;2023-09-12T11:06:50;6.30;;;4.55;;
61905;SDS011;47863;55.766;37.672;2023-09-12T11:11:54;7.35;;;5.35;;
61905;SDS011;47863;55.766;37.672;2023-09-12T11:14:30;8.43;;;5.35;;
61905;SDS011;47863;55.766;37.672;2023-09-12T11:19:39;5.78;;;4.38;;
61905;SDS011;47863;55.766;37.672;2023-09-12T11:24:49;6.60;;;4.60;;
61905;SDS011;47863;55.766;37.672;2023-09-12T11:27:15;6.00;;;4.20;;
61905;SDS011;47863;55.766;37.672;2023-09-12T11:29:42;5.53;;;3.90;;
61905;SDS011;47863;55.766;37.672;2023-09-12T11:32:08;8.48;;;4.75;;
61905;SDS011;47863;55.766;37.672;2023-09-12T11:37:04;6.95;;;4.65;;
61905;SDS011;47863;55.766;37.672;2023-09-12T11:39:31;8.23;;;5.38;;
61905;SDS011;47863;55.766;37.672;2023-09-12T11:41:58;7.43;;;5.00;;
61905;SDS011;47863;55.766;37.672;2023-09-12T11:44:25;6.93;;;4.75;;
61905;SDS011;47863;55.766;37.672;2023-09-12T11:46:52;9.77;;;6.75;;
61905;SDS011;47863;55.766;37.672;2023-09-12T11:49:21;11.25;;;7.72;;
61905;SDS011;47863;55.766;37.672;2023-09-12T11:51:53;7.90;;;5.78;;
61905;SDS011;47863;55.766;37.672;2023-09-12T11:54:20;7.70;;;5.25;;
61905;SDS011;47863;55.766;37.672;2023-09-12T11:56:50;7.82;;;5.28;;
61905;SDS011;47863;55.766;37.672;2023-09-12T11:59:22;7.85;;;5.05;;
61905;SDS011;47863;55.766;37.672;2023-09-12T12:01:48;7.43;;;5.13;;
61905;SDS011;47863;55.766;37.672;2023-09-12T12:04:14;6.82;;;4.32;;
61905;SDS011;47863;55.766;37.672;2023-09-12T12:06:40;7.00;;;4.63;;
61905;SDS011;47863;55.766;37.672;2023-09-12T12:09:06;6.38;;;4.82;;
61905;SDS011;47863;55.766;37.672;2023-09-12T12:11:32;6.50;;;4.45;;
61905;SDS011;47863;55.766;37.672;2023-09-12T12:13:58;7.38;;;4.90;;
61905;SDS011;47863;55.766;37.672;2023-09-12T12:16:25;7.80;;;4.63;;
61905;SDS011;47863;55.766;37.672;2023-09-12T12:18:51;8.93;;;4.57;;
61905;SDS011;47863;55.766;37.672;2023-09-12T12:21:21;7.28;;;4.50;;
61905;SDS011;47863;55.766;37.672;2023-09-12T12:23:46;8.05;;;3.92;;
61905;SDS011;47863;55.766;37.672;2023-09-12T12:26:24;8.40;;;5.28;;
61905;SDS011;47863;55.766;37.672;2023-09-12T12:28:49;6.93;;;4.45;;
61905;SDS011;47863;55.766;37.672;2023-09-12T12:31:15;7.40;;;4.47;;
61905;SDS011;47863;55.766;37.672;2023-09-12T12:33:47;5.90;;;4.20;;
61905;SDS011;47863;55.766;37.672;2023-09-12T12:38:43;11.98;;;7.53;;
61905;SDS011;47863;55.766;37.672;2023-09-12T12:41:12;10.68;;;7.65;;
61905;SDS011;47863;55.766;37.672;2023-09-12T12:43:42;11.95;;;6.25;;
61905;SDS011;47863;55.766;37.672;2023-09-12T12:46:11;8.23;;;5.25;;
61905;SDS011;47863;55.766;37.672;2023-09-12T12:48:38;6.80;;;4.15;;
61905;SDS011;47863;55.766;37.672;2023-09-12T12:51:15;5.55;;;3.95;;
61905;SDS011;47863;55.766;37.672;2023-09-12T12:53:44;6.13;;;3.80;;
61905;SDS011;47863;55.766;37.672;2023-09-12T12:56:12;6.22;;;3.70;;
61905;SDS011;47863;55.766;37.672;2023-09-12T12:58:44;7.53;;;3.67;;
61905;SDS011;47863;55.766;37.672;2023-09-12T13:01:11;5.05;;;3.70;;
61905;SDS011;47863;55.766;37.672;2023-09-12T13:03:36;6.80;;;4.20;;
61905;SDS011;47863;55.766;37.672;2023-09-12T13:06:02;10.57;;;4.30;;
61905;SDS011;47863;55.766;37.672;2023-09-12T13:08:27;5.70;;;3.65;;
61905;SDS011;47863;55.766;37.672;2023-09-12T13:10:53;7.18;;;3.60;;
61905;SDS011;47863;55.766;37.672;2023-09-12T13:13:19;5.53;;;3.63;;
61905;SDS011;47863;55.766;37.672;2023-09-12T13:15:44;5.78;;;3.80;;
61905;SDS011;47863;55.766;37.672;2023-09-12T13:18:10;7.95;;;3.65;;
61905;SDS011;47863;55.766;37.672;2023-09-12T13:20:35;7.47;;;4.07;;
61905;SDS011;47863;55.766;37.672;2023-09-12T13:23:01;5.38;;;3.45;;
61905;SDS011;47863;55.766;37.672;2023-09-12T13:25:26;5.70;;;3.72;;
61905;SDS011;47863;55.766;37.672;2023-09-12T13:27:52;6.85;;;3.65;;
61905;SDS011;47863;55.766;37.672;2023-09-12T13:30:17;5.30;;;3.70;;
61905;SDS011;47863;55.766;37.672;2023-09-12T13:32:43;6.55;;;4.00;;
61905;SDS011;47863;55.766;37.672;2023-09-12T13:35:10;10.40;;;4.43;;
61905;SDS011;47863;55.766;37.672;2023-09-12T13:37:36;6.03;;;3.97;;
61905;SDS011;47863;55.766;37.672;2023-09-12T13:40:01;5.72;;;3.97;;
61905;SDS011;47863;55.766;37.672;2023-09-12T13:42:28;8.15;;;4.05;;
61905;SDS011;47863;55.766;37.672;2023-09-12T13:44:56;6.88;;;4.25;;
61905;SDS011;47863;55.766;37.672;2023-09-12T13:47:22;15.07;;;7.63;;
61905;SDS011;47863;55.766;37.672;2023-09-12T13:49:48;8.77;;;4.97;;
61905;SDS011;47863;55.766;37.672;2023-09-12T13:52:14;8.23;;;4.53;;
61905;SDS011;47863;55.766;37.672;2023-09-12T13:54:40;7.18;;;4.32;;
61905;SDS011;47863;55.766;37.672;2023-09-12T13:57:05;6.70;;;3.95;;
61905;SDS011;47863;55.766;37.672;2023-09-12T13:59:31;7.90;;;4.90;;
61905;SDS011;47863;55.766;37.672;2023-09-12T14:01:56;5.97;;;3.85;;
61905;SDS011;47863;55.766;37.672;2023-09-12T14:04:22;5.20;;;3.70;;
61905;SDS011;47863;55.766;37.672;2023-09-12T14:06:48;6.15;;;4.00;;
61905;SDS011;47863;55.766;37.672;2023-09-12T14:09:13;6.60;;;3.75;;
61905;SDS011;47863;55.766;37.672;2023-09-12T14:11:40;6.47;;;3.65;;
61905;SDS011;47863;55.766;37.672;2023-09-12T14:14:06;6.82;;;3.70;;
61905;SDS011;47863;55.766;37.672;2023-09-12T14:16:31;6.28;;;3.72;;
61905;SDS011;47863;55.766;37.672;2023-09-12T14:18:58;6.63;;;4.03;;
61905;SDS011;47863;55.766;37.672;2023-09-12T14:21:24;8.00;;;4.35;;
61905;SDS011;47863;55.766;37.672;2023-09-12T14:23:49;8.32;;;4.25;;
61905;SDS011;47863;55.766;37.672;2023-09-12T14:26:15;7.53;;;4.13;;
61905;SDS011;47863;55.766;37.672;2023-09-12T14:28:40;6.18;;;4.07;;
61905;SDS011;47863;55.766;37.672;2023-09-12T14:31:06;7.22;;;3.90;;
61905;SDS011;47863;55.766;37.672;2023-09-12T14:33:38;6.07;;;3.63;;
61905;SDS011;47863;55.766;37.672;2023-09-12T14:36:10;8.07;;;3.83;;
61905;SDS011;47863;55.766;37.672;2023-09-12T14:38:36;5.60;;;3.50;;
61905;SDS011;47863;55.766;37.672;2023-09-12T14:41:01;7.90;;;4.32;;
61905;SDS011;47863;55.766;37.672;2023-09-12T14:43:28;6.82;;;3.85;;
61905;SDS011;47863;55.766;37.672;2023-09-12T14:45:54;7.03;;;3.80;;
61905;SDS011;47863;55.766;37.672;2023-09-12T14:48:20;5.47;;;3.08;;
61905;SDS011;47863;55.766;37.672;2023-09-12T14:50:45;6.38;;;3.60;;
61905;SDS011;47863;55.766;37.672;2023-09-12T14:53:14;7.20;;;3.78;;